Time;durP1;ratioP1;P1;durP2;ratioP2;P2;SDS_P1;SDS_P2;PMS_P1;PMS_P2;Temp;Humidity;BMP_temperature;BMP_pressure;BME280_temperature;BME280_humidity;BME280_pressure;Samples;Min_cycle;Max_cycle;Signal;HPM_P1;HPM_P2
2023/07/28 00:02:05;;;;;;;3.67;1.93;;;17.50;99.90;;;;;;5016976;28;20638;-78
2023/07/28 00:04:33;;;;;;;3.93;1.73;;;17.50;99.90;;;;;;5018072;28;20314;-79
2023/07/28 00:06:59;;;;;;;4.23;1.70;;;17.50;99.90;;;;;;5018121;28;20173;-78
2023/07/28 00:09:24;;;;;;;5.43;2.17;;;17.50;99.90;;;;;;5016359;28;20192;-80
2023/07/28 00:11:50;;;;;;;3.50;2.00;;;17.50;99.90;;;;;;5018595;28;20180;-79
2023/07/28 00:14:15;;;;;;;4.07;2.20;;;17.50;99.90;;;;;;5016829;28;20185;-80
2023/07/28 00:16:41;;;;;;;5.10;1.97;;;17.50;99.90;;;;;;5023336;28;20188;-80
2023/07/28 00:19:06;;;;;;;4.03;1.97;;;17.50;99.90;;;;;;5020793;28;20181;-79
2023/07/28 00:21:32;;;;;;;4.43;2.27;;;17.60;99.90;;;;;;5018140;28;20263;-79
2023/07/28 00:23:58;;;;;;;3.57;2.30;;;17.50;99.90;;;;;;5016422;28;20191;-80
2023/07/28 00:26:23;;;;;;;3.77;2.53;;;17.50;99.90;;;;;;5015736;28;20188;-80
2023/07/28 00:28:49;;;;;;;3.47;2.07;;;17.50;99.90;;;;;;5018856;28;20193;-80
2023/07/28 00:31:14;;;;;;;6.33;2.63;;;17.50;99.90;;;;;;5019440;28;20201;-80
2023/07/28 00:33:40;;;;;;;4.40;2.97;;;17.50;99.90;;;;;;5020876;28;20169;-79
2023/07/28 00:36:05;;;;;;;3.13;2.33;;;17.50;99.90;;;;;;5020929;28;20200;-79
2023/07/28 00:38:31;;;;;;;3.90;2.30;;;17.50;99.90;;;;;;5026592;28;20219;-79
2023/07/28 00:40:57;;;;;;;4.57;2.27;;;17.50;99.90;;;;;;5030739;28;20746;-79
2023/07/28 00:43:23;;;;;;;4.97;2.47;;;17.40;99.90;;;;;;5030686;28;20204;-80
2023/07/28 00:45:49;;;;;;;5.17;2.20;;;17.40;99.90;;;;;;5019676;28;20706;-78
2023/07/28 00:48:16;;;;;;;4.50;2.30;;;17.40;99.90;;;;;;5018156;28;20196;-80
2023/07/28 00:50:44;;;;;;;2.60;1.93;;;17.40;99.90;;;;;;5017156;28;20196;-79
2023/07/28 00:53:10;;;;;;;4.87;2.50;;;17.40;99.90;;;;;;5017790;28;20181;-79
2023/07/28 00:55:36;;;;;;;5.93;2.20;;;17.40;99.90;;;;;;5017474;28;20184;-80
2023/07/28 00:58:02;;;;;;;3.90;2.10;;;17.40;99.90;;;;;;5017346;28;20181;-79
2023/07/28 01:00:27;;;;;;;4.83;3.03;;;17.50;99.90;;;;;;5016939;28;20276;-79
2023/07/28 01:02:53;;;;;;;6.57;2.53;;;17.40;99.90;;;;;;5017041;28;20196;-79
2023/07/28 01:05:21;;;;;;;4.90;2.40;;;17.40;99.90;;;;;;5015449;28;20239;-79
2023/07/28 01:08:10;;;;;;;6.37;2.70;;;17.40;99.90;;;;;;5015467;28;20176;-79
2023/07/28 01:10:38;;;;;;;3.93;2.70;;;17.40;99.90;;;;;;5016766;28;20279;-79
2023/07/28 01:13:03;;;;;;;6.03;2.90;;;17.50;99.90;;;;;;5017172;28;20177;-80
2023/07/28 01:15:29;;;;;;;3.97;2.50;;;17.40;99.90;;;;;;5016511;28;20255;-79
2023/07/28 01:17:54;;;;;;;3.47;2.47;;;17.40;99.90;;;;;;5016412;28;20192;-79
2023/07/28 01:20:27;;;;;;;6.13;2.73;;;17.40;99.90;;;;;;5015694;28;20197;-79
2023/07/28 01:23:18;;;;;;;3.03;2.47;;;17.40;99.90;;;;;;5016932;28;20189;-78
2023/07/28 01:26:04;;;;;;;2.90;2.30;;;17.40;99.90;;;;;;5017015;28;20161;-80
2023/07/28 01:28:30;;;;;;;2.70;2.13;;;17.40;99.90;;;;;;5016297;28;20165;-80
2023/07/28 01:30:57;;;;;;;7.00;2.67;;;17.40;99.90;;;;;;5014681;28;20268;-81
2023/07/28 01:33:23;;;;;;;3.77;2.50;;;17.40;99.90;;;;;;5016660;28;20181;-79
2023/07/28 01:35:48;;;;;;;3.50;2.33;;;17.50;99.90;;;;;;5016720;28;20208;-80
2023/07/28 01:38:16;;;;;;;2.60;2.27;;;17.40;99.90;;;;;;5020400;28;20184;-80
2023/07/28 01:40:41;;;;;;;6.87;2.20;;;17.40;99.90;;;;;;5016579;28;20192;-80
2023/07/28 01:43:07;;;;;;;9.00;2.47;;;17.40;99.90;;;;;;5016155;28;20207;-79
2023/07/28 01:45:32;;;;;;;6.27;2.63;;;17.40;99.90;;;;;;5016090;28;20201;-79
2023/07/28 01:47:58;;;;;;;2.60;2.30;;;17.40;99.90;;;;;;5016040;28;20172;-80
2023/07/28 01:50:23;;;;;;;6.07;2.30;;;17.40;99.90;;;;;;5014334;28;20259;-80
2023/07/28 01:52:49;;;;;;;4.80;2.80;;;17.40;99.90;;;;;;5014660;28;20180;-79
2023/07/28 01:55:15;;;;;;;4.83;2.50;;;17.50;99.90;;;;;;5014800;28;20215;-79
2023/07/28 01:57:53;;;;;;;3.13;2.43;;;17.40;99.90;;;;;;5016270;28;20180;-79
2023/07/28 02:00:19;;;;;;;3.57;2.93;;;17.40;99.90;;;;;;5014134;28;20212;-79
2023/07/28 02:02:46;;;;;;;5.10;3.43;;;17.40;99.90;;;;;;5016116;28;20208;-80
2023/07/28 02:05:11;;;;;;;4.47;3.00;;;17.40;99.90;;;;;;5014764;28;20181;-80
2023/07/28 02:07:37;;;;;;;5.43;3.10;;;17.40;99.90;;;;;;5016053;28;20246;-80
2023/07/28 02:10:03;;;;;;;5.30;2.90;;;17.40;99.90;;;;;;5015566;28;20197;-78
2023/07/28 02:12:28;;;;;;;4.43;2.93;;;17.40;99.90;;;;;;5014519;28;20185;-80
2023/07/28 02:14:54;;;;;;;4.60;2.83;;;17.40;99.90;;;;;;5014308;28;20181;-80
2023/07/28 02:17:19;;;;;;;4.70;2.70;;;17.40;99.90;;;;;;5015901;28;20240;-80
2023/07/28 02:19:45;;;;;;;3.43;3.13;;;17.40;99.90;;;;;;5016012;28;20247;-80
2023/07/28 02:22:11;;;;;;;9.40;3.30;;;17.40;99.90;;;;;;5013927;28;20262;-79
2023/07/28 02:24:36;;;;;;;6.27;3.00;;;17.40;99.90;;;;;;5015774;28;20196;-79
2023/07/28 02:27:02;;;;;;;3.47;3.17;;;17.40;99.90;;;;;;5014440;28;20578;-80
2023/07/28 02:29:28;;;;;;;5.47;2.63;;;17.40;99.90;;;;;;5016051;28;20264;-80
2023/07/28 02:31:53;;;;;;;4.37;2.97;;;17.40;99.90;;;;;;5014196;28;20192;-80
2023/07/28 02:34:19;;;;;;;7.50;2.90;;;17.40;99.90;;;;;;5015383;28;20177;-80
2023/07/28 02:36:44;;;;;;;4.53;2.80;;;17.40;99.90;;;;;;5014048;28;20185;-79
2023/07/28 02:39:10;;;;;;;3.40;2.87;;;17.40;99.90;;;;;;5015464;28;20185;-80
2023/07/28 02:41:35;;;;;;;7.13;2.77;;;17.40;99.90;;;;;;5015118;28;20302;-78
2023/07/28 02:44:01;;;;;;;4.00;2.67;;;17.40;99.90;;;;;;5015254;28;20188;-79
2023/07/28 02:46:26;;;;;;;5.97;2.50;;;17.50;99.90;;;;;;5016912;28;20279;-79
2023/07/28 02:48:52;;;;;;;7.30;2.90;;;17.50;99.90;;;;;;5016541;28;20169;-79
2023/07/28 02:51:17;;;;;;;7.53;3.27;;;17.50;99.90;;;;;;5015355;28;20283;-79
2023/07/28 02:53:43;;;;;;;2.73;2.53;;;17.50;99.90;;;;;;5013492;28;20291;-79
2023/07/28 02:56:08;;;;;;;2.70;2.50;;;17.50;99.90;;;;;;5016664;28;20298;-80
2023/07/28 02:58:34;;;;;;;3.13;2.30;;;17.30;99.90;;;;;;5016742;28;20185;-78
2023/07/28 03:00:59;;;;;;;2.90;2.60;;;17.50;99.90;;;;;;5013591;28;20200;-79
2023/07/28 03:03:25;;;;;;;2.90;2.17;;;17.40;99.90;;;;;;5013545;28;20296;-79
2023/07/28 03:05:52;;;;;;;3.10;2.77;;;17.40;99.90;;;;;;5014883;28;20170;-79
2023/07/28 03:08:18;;;;;;;2.63;2.43;;;17.40;99.90;;;;;;5016042;28;20192;-79
2023/07/28 03:10:43;;;;;;;3.13;2.50;;;17.40;99.90;;;;;;5016575;28;20193;-80
2023/07/28 03:13:09;;;;;;;4.07;2.00;;;17.50;99.90;;;;;;5012998;28;20230;-80
2023/07/28 03:15:34;;;;;;;3.13;2.23;;;17.50;99.90;;;;;;5014854;28;20326;-79
2023/07/28 03:18:00;;;;;;;2.73;2.50;;;17.50;99.90;;;;;;5014506;28;20256;-80
2023/07/28 03:20:26;;;;;;;4.03;2.53;;;17.60;99.90;;;;;;5014573;28;20677;-80
2023/07/28 03:22:51;;;;;;;4.17;2.40;;;17.50;99.90;;;;;;5013052;28;20234;-79
2023/07/28 03:25:17;;;;;;;3.30;2.40;;;17.50;99.90;;;;;;5014983;28;20196;-79
2023/07/28 03:27:42;;;;;;;3.30;2.80;;;17.50;99.90;;;;;;5013402;28;20177;-79
2023/07/28 03:30:10;;;;;;;3.37;2.70;;;17.50;99.90;;;;;;5014431;28;20243;-79
2023/07/28 03:32:36;;;;;;;2.80;2.30;;;17.50;99.90;;;;;;5015008;28;20676;-80
2023/07/28 03:35:04;;;;;;;4.20;2.47;;;17.50;99.90;;;;;;5013629;28;20196;-80
2023/07/28 03:37:29;;;;;;;5.40;2.50;;;17.50;99.90;;;;;;5014792;28;20172;-79
2023/07/28 03:39:55;;;;;;;6.07;2.67;;;17.50;99.90;;;;;;5014695;28;20680;-80
2023/07/28 03:42:20;;;;;;;3.30;2.60;;;17.50;99.90;;;;;;5015168;28;20201;-79
2023/07/28 03:44:46;;;;;;;2.77;2.57;;;17.50;99.90;;;;;;5015201;28;20173;-79
2023/07/28 03:47:12;;;;;;;3.97;2.73;;;17.50;99.90;;;;;;5014677;28;20645;-79
2023/07/28 03:49:37;;;;;;;7.17;2.67;;;17.50;99.90;;;;;;5014049;28;20671;-79
2023/07/28 03:52:03;;;;;;;4.83;2.60;;;17.60;99.90;;;;;;5013511;28;20684;-79
2023/07/28 03:54:28;;;;;;;3.23;2.93;;;17.50;99.90;;;;;;5014635;28;20606;-80
2023/07/28 03:56:54;;;;;;;4.13;2.73;;;17.50;99.90;;;;;;5015081;28;20177;-80
2023/07/28 03:59:19;;;;;;;2.93;2.50;;;17.50;99.90;;;;;;5014877;28;20173;-79
2023/07/28 04:01:45;;;;;;;3.00;2.63;;;17.40;99.90;;;;;;5014310;28;20211;-79
2023/07/28 04:04:10;;;;;;;2.83;2.57;;;17.50;99.90;;;;;;5014595;28;20542;-80
2023/07/28 04:06:47;;;;;;;3.23;2.53;;;17.50;99.90;;;;;;5014463;28;20569;-80
2023/07/28 04:09:16;;;;;;;4.30;2.37;;;17.50;99.90;;;;;;5014345;28;20154;-80
2023/07/28 04:11:42;;;;;;;4.87;2.50;;;17.50;99.90;;;;;;5014439;28;20185;-80
2023/07/28 04:14:08;;;;;;;4.00;2.50;;;17.50;99.90;;;;;;5014677;28;20204;-79
2023/07/28 04:16:34;;;;;;;2.60;2.40;;;17.60;99.90;;;;;;5013085;28;20546;-79
2023/07/28 04:18:59;;;;;;;2.80;2.50;;;17.60;99.90;;;;;;5012788;28;20173;-79
2023/07/28 04:21:25;;;;;;;3.30;2.53;;;17.60;99.90;;;;;;5012883;28;20247;-79
2023/07/28 04:23:51;;;;;;;2.83;2.33;;;17.80;99.90;;;;;;5014379;28;20197;-80
2023/07/28 04:26:17;;;;;;;2.53;2.30;;;17.50;99.90;;;;;;5018044;28;20251;-79
2023/07/28 04:28:43;;;;;;;4.97;2.53;;;17.60;99.90;;;;;;5016490;28;20225;-80
2023/07/28 04:31:08;;;;;;;2.63;2.43;;;17.60;99.90;;;;;;5017884;28;20196;-80
2023/07/28 04:33:34;;;;;;;3.53;2.37;;;17.60;99.90;;;;;;5017831;28;20169;-79
2023/07/28 04:36:02;;;;;;;2.80;2.50;;;17.60;99.90;;;;;;5016038;28;20219;-80
2023/07/28 04:38:27;;;;;;;2.57;2.03;;;17.60;99.90;;;;;;5017051;28;20653;-80
2023/07/28 04:40:53;;;;;;;1.63;1.53;;;17.60;99.90;;;;;;5017343;28;20274;-79
2023/07/28 04:43:19;;;;;;;7.10;2.20;;;17.60;99.90;;;;;;5017093;28;20197;-79
2023/07/28 04:45:45;;;;;;;2.20;1.90;;;17.80;99.90;;;;;;5015869;28;20355;-79
2023/07/28 04:48:11;;;;;;;2.83;2.23;;;17.70;99.90;;;;;;5017430;28;20674;-79
2023/07/28 04:50:37;;;;;;;1.90;1.70;;;17.70;99.90;;;;;;5017017;28;20216;-80
2023/07/28 04:53:03;;;;;;;1.97;1.73;;;17.70;99.90;;;;;;5015956;28;20177;-79
2023/07/28 04:55:28;;;;;;;2.07;1.57;;;17.70;99.90;;;;;;5017202;28;20182;-79
2023/07/28 04:57:55;;;;;;;2.10;1.83;;;17.60;99.90;;;;;;5017184;28;20279;-79
2023/07/28 05:00:21;;;;;;;3.43;1.90;;;17.90;99.90;;;;;;5015705;28;20232;-80
2023/07/28 05:02:46;;;;;;;2.07;1.87;;;17.60;99.90;;;;;;5016621;28;20229;-79
2023/07/28 05:05:12;;;;;;;2.50;2.00;;;17.70;99.90;;;;;;5017104;28;20579;-79
2023/07/28 05:07:37;;;;;;;3.03;1.83;;;17.70;99.90;;;;;;5016830;28;20177;-81
2023/07/28 05:10:03;;;;;;;2.63;2.20;;;17.70;99.90;;;;;;5017841;28;20196;-79
2023/07/28 05:12:29;;;;;;;4.07;2.10;;;17.70;99.90;;;;;;5020546;28;20278;-80
2023/07/28 05:14:54;;;;;;;3.53;2.00;;;17.80;99.90;;;;;;5022051;28;20224;-79
2023/07/28 05:17:20;;;;;;;4.23;2.40;;;17.70;99.90;;;;;;5017236;28;20169;-79
2023/07/28 05:19:45;;;;;;;3.43;2.10;;;17.80;99.90;;;;;;5016885;28;20200;-79
2023/07/28 05:22:11;;;;;;;2.27;2.07;;;17.80;99.90;;;;;;5015277;28;20208;-79
2023/07/28 05:24:36;;;;;;;8.30;2.20;;;17.80;99.90;;;;;;5015752;28;20180;-79
2023/07/28 05:27:02;;;;;;;2.10;1.90;;;17.80;99.90;;;;;;5015034;28;20180;-79
2023/07/28 05:29:28;;;;;;;3.17;1.90;;;17.80;99.90;;;;;;5015137;28;20196;-79
2023/07/28 05:31:53;;;;;;;2.43;1.90;;;17.80;99.90;;;;;;5014593;28;20668;-79
2023/07/28 05:34:19;;;;;;;3.90;2.10;;;17.80;99.90;;;;;;5014806;28;20178;-79
2023/07/28 05:36:44;;;;;;;4.67;2.17;;;17.80;99.90;;;;;;5014846;28;20227;-79
2023/07/28 05:39:10;;;;;;;4.17;1.80;;;17.90;99.90;;;;;;5016315;28;20216;-79
2023/07/28 05:41:39;;;;;;;2.20;2.00;;;17.80;99.90;;;;;;5014908;28;20316;-79
2023/07/28 05:44:04;;;;;;;2.37;2.17;;;17.90;99.90;;;;;;5016216;28;20271;-79
2023/07/28 05:46:30;;;;;;;4.47;2.47;;;17.80;99.90;;;;;;5015600;28;20610;-79
2023/07/28 05:48:56;;;;;;;2.67;1.93;;;17.90;99.90;;;;;;5014613;28;20251;-79
2023/07/28 05:51:22;;;;;;;7.23;2.07;;;17.80;99.90;;;;;;5014268;28;20665;-79
2023/07/28 05:53:49;;;;;;;3.93;2.40;;;17.90;99.90;;;;;;5018282;28;20213;-78
2023/07/28 05:56:14;;;;;;;4.93;2.30;;;17.90;99.90;;;;;;5018428;28;20365;-79
2023/07/28 05:58:40;;;;;;;2.77;2.40;;;17.90;99.90;;;;;;5020246;28;20188;-79
2023/07/28 06:01:05;;;;;;;4.70;2.97;;;17.90;99.90;;;;;;5017804;28;20200;-79
2023/07/28 06:03:31;;;;;;;5.93;2.80;;;18.00;99.90;;;;;;5017663;28;20205;-79
2023/07/28 06:05:57;;;;;;;7.57;3.10;;;18.10;99.90;;;;;;5019527;28;20177;-79
2023/07/28 06:08:22;;;;;;;4.20;2.83;;;18.00;99.90;;;;;;5018052;28;20636;-79
2023/07/28 06:10:48;;;;;;;4.00;3.13;;;18.00;99.90;;;;;;5018079;28;20197;-80
2023/07/28 06:13:14;;;;;;;5.73;3.53;;;18.10;99.90;;;;;;5020326;28;20185;-79
2023/07/28 06:15:40;;;;;;;5.73;3.50;;;18.10;99.90;;;;;;5017071;28;20189;-79
2023/07/28 06:18:06;;;;;;;5.47;3.27;;;18.10;99.90;;;;;;5017313;28;20184;-80
2023/07/28 06:20:31;;;;;;;10.20;3.57;;;18.10;99.90;;;;;;5018067;28;20211;-79
2023/07/28 06:22:57;;;;;;;6.10;2.93;;;18.10;99.90;;;;;;5019937;28;20247;-79
2023/07/28 06:25:22;;;;;;;5.57;3.37;;;18.10;99.90;;;;;;5019358;28;20184;-79
2023/07/28 06:27:48;;;;;;;5.27;4.27;;;18.10;99.90;;;;;;5016355;28;20173;-79
2023/07/28 06:30:13;;;;;;;6.67;4.23;;;18.10;99.90;;;;;;5017958;28;20201;-80
2023/07/28 06:32:39;;;;;;;5.90;4.40;;;18.30;99.90;;;;;;5014682;28;20542;-80
2023/07/28 06:35:07;;;;;;;7.47;3.67;;;18.10;99.90;;;;;;5015169;28;20223;-79
2023/07/28 06:37:33;;;;;;;8.60;5.27;;;18.10;99.90;;;;;;5017392;28;20173;-79
2023/07/28 06:39:59;;;;;;;11.50;5.57;;;18.20;99.90;;;;;;5018675;28;20564;-80
2023/07/28 06:42:25;;;;;;;10.93;5.93;;;18.20;99.90;;;;;;5017027;28;20197;-80
2023/07/28 06:44:51;;;;;;;8.33;5.97;;;18.10;99.90;;;;;;5018961;28;20169;-79
2023/07/28 06:47:17;;;;;;;13.00;6.00;;;18.20;99.90;;;;;;5015559;28;20173;-80
2023/07/28 06:49:43;;;;;;;7.97;5.47;;;18.30;99.90;;;;;;5017168;28;20671;-80
2023/07/28 06:52:09;;;;;;;10.43;5.70;;;18.20;99.90;;;;;;5014532;28;20181;-80
2023/07/28 06:54:34;;;;;;;10.07;5.40;;;18.30;99.90;;;;;;5018065;28;20205;-80
2023/07/28 06:57:00;;;;;;;8.37;5.27;;;18.30;99.90;;;;;;5017038;28;20169;-79
2023/07/28 06:59:26;;;;;;;6.43;4.63;;;18.30;99.90;;;;;;5015313;28;20196;-79
2023/07/28 07:01:52;;;;;;;9.10;4.97;;;18.30;99.90;;;;;;5016227;28;20645;-79
2023/07/28 07:04:18;;;;;;;12.87;5.43;;;18.30;99.90;;;;;;5017446;28;20177;-80
2023/07/28 07:06:44;;;;;;;10.07;5.70;;;18.20;99.90;;;;;;5016797;28;20173;-80
2023/07/28 07:09:14;;;;;;;9.17;6.40;;;18.30;99.90;;;;;;5013928;28;20598;-79
2023/07/28 07:11:39;;;;;;;9.97;6.03;;;18.20;99.90;;;;;;5017050;28;20232;-80
2023/07/28 07:14:05;;;;;;;11.17;7.20;;;18.30;99.90;;;;;;5017559;28;20172;-80
2023/07/28 07:16:30;;;;;;;10.93;6.87;;;18.30;99.90;;;;;;5017055;28;20327;-80
2023/07/28 07:18:56;;;;;;;10.93;7.03;;;18.30;99.90;;;;;;5015601;28;20210;-80
2023/07/28 07:21:22;;;;;;;9.53;7.03;;;18.40;99.90;;;;;;5016334;28;20291;-80
2023/07/28 07:23:47;;;;;;;7.53;6.30;;;18.30;99.90;;;;;;5017516;28;20204;-80
2023/07/28 07:26:13;;;;;;;8.43;5.63;;;18.40;99.90;;;;;;5024158;28;20255;-79
2023/07/28 07:28:38;;;;;;;7.23;5.73;;;18.40;99.90;;;;;;5029931;28;20172;-80
2023/07/28 07:31:04;;;;;;;7.27;5.70;;;18.40;99.90;;;;;;5019309;28;20196;-80
2023/07/28 07:33:29;;;;;;;7.97;5.40;;;18.50;99.90;;;;;;5017548;28;20177;-81
2023/07/28 07:35:55;;;;;;;9.43;4.83;;;18.50;99.90;;;;;;5017449;28;20378;-80
2023/07/28 07:38:21;;;;;;;5.90;4.43;;;18.60;99.90;;;;;;5016222;28;20181;-80
2023/07/28 07:40:48;;;;;;;5.40;4.33;;;18.60;99.90;;;;;;5015450;28;20192;-80
2023/07/28 07:43:18;;;;;;;4.53;3.83;;;18.80;99.90;;;;;;5015988;28;20654;-80
2023/07/28 07:45:46;;;;;;;4.73;4.10;;;18.70;99.90;;;;;;5014452;28;20173;-79
2023/07/28 07:48:11;;;;;;;5.17;4.17;;;18.80;99.90;;;;;;5014017;28;20172;-80
2023/07/28 07:50:37;;;;;;;5.03;4.17;;;18.70;99.90;;;;;;5015354;28;20643;-80
2023/07/28 07:53:02;;;;;;;6.30;3.97;;;18.90;99.90;;;;;;5017292;28;20177;-80
2023/07/28 07:55:28;;;;;;;4.90;3.63;;;18.80;99.90;;;;;;5015612;28;20587;-80
2023/07/28 07:57:53;;;;;;;6.73;4.33;;;18.70;99.90;;;;;;5014770;28;20303;-79
2023/07/28 08:00:19;;;;;;;6.30;4.27;;;18.80;99.90;;;;;;5016807;28;20228;-80
2023/07/28 08:02:45;;;;;;;5.43;3.63;;;18.80;99.90;;;;;;5019805;28;20204;-80
2023/07/28 08:05:10;;;;;;;7.40;3.57;;;19.00;99.90;;;;;;5021548;28;20581;-80
2023/07/28 08:07:36;;;;;;;5.63;4.00;;;18.80;99.90;;;;;;5019962;28;20184;-80
2023/07/28 08:10:02;;;;;;;3.93;3.40;;;18.80;99.90;;;;;;5023607;28;20207;-80
2023/07/28 08:12:28;;;;;;;3.10;2.73;;;18.90;99.90;;;;;;5022408;28;20180;-80
2023/07/28 08:14:54;;;;;;;3.97;3.10;;;18.90;99.90;;;;;;5022597;28;20183;-80
2023/07/28 08:17:19;;;;;;;4.17;2.47;;;18.80;99.90;;;;;;5021497;28;20177;-81
2023/07/28 08:19:45;;;;;;;3.07;2.77;;;19.00;99.90;;;;;;5026136;28;20205;-81
2023/07/28 08:22:12;;;;;;;2.67;2.30;;;18.90;99.90;;;;;;5027835;28;20209;-80
2023/07/28 08:24:37;;;;;;;2.23;2.03;;;18.90;99.90;;;;;;5026855;28;20645;-80
2023/07/28 08:27:03;;;;;;;2.60;2.40;;;18.90;99.90;;;;;;5025599;28;20260;-81
2023/07/28 08:29:29;;;;;;;2.63;2.10;;;19.00;99.90;;;;;;5026346;28;20165;-80
2023/07/28 08:31:54;;;;;;;2.13;1.93;;;19.00;99.90;;;;;;5021787;28;20173;-81
2023/07/28 08:34:20;;;;;;;6.17;2.10;;;19.00;99.90;;;;;;5025370;28;20239;-81
2023/07/28 08:36:45;;;;;;;1.80;1.70;;;19.10;99.90;;;;;;5024071;28;20224;-80
2023/07/28 08:39:11;;;;;;;2.43;1.97;;;19.10;99.90;;;;;;5024705;28;20176;-80
2023/07/28 08:41:37;;;;;;;2.70;1.70;;;19.10;99.90;;;;;;5025325;28;20251;-80
2023/07/28 08:44:03;;;;;;;2.73;1.87;;;19.10;99.90;;;;;;5024470;28;20197;-80
2023/07/28 08:46:28;;;;;;;3.13;1.97;;;19.10;99.90;;;;;;5016948;28;20196;-81
2023/07/28 08:48:54;;;;;;;2.37;2.10;;;19.10;99.90;;;;;;5018839;28;20245;-80
2023/07/28 08:51:23;;;;;;;2.90;2.03;;;18.90;99.90;;;;;;5018399;28;20235;-81
2023/07/28 08:53:49;;;;;;;3.93;2.30;;;19.00;99.90;;;;;;5017200;28;20181;-81
2023/07/28 08:56:15;;;;;;;3.43;2.17;;;19.10;99.90;;;;;;5017025;28;20280;-81
2023/07/28 08:58:40;;;;;;;3.10;2.23;;;19.10;99.90;;;;;;5017064;28;20664;-81
2023/07/28 09:01:06;;;;;;;2.70;2.17;;;19.10;99.90;;;;;;5018724;28;20204;-82
2023/07/28 09:03:33;;;;;;;6.20;2.40;;;19.20;99.90;;;;;;5020134;28;20269;-80
2023/07/28 09:06:01;;;;;;;4.63;2.67;;;19.20;99.90;;;;;;5021996;28;20173;-80
2023/07/28 09:08:27;;;;;;;3.13;2.80;;;19.20;99.90;;;;;;5023663;28;20232;-80
2023/07/28 09:10:54;;;;;;;3.10;2.80;;;19.30;99.90;;;;;;5019937;28;20228;-81
2023/07/28 09:13:20;;;;;;;4.67;3.20;;;19.30;99.90;;;;;;5020997;28;20613;-80
2023/07/28 09:15:46;;;;;;;5.13;3.03;;;19.40;99.90;;;;;;5020866;28;20200;-81
2023/07/28 09:18:14;;;;;;;4.10;3.00;;;19.30;99.90;;;;;;5023200;28;20639;-80
2023/07/28 09:20:41;;;;;;;6.07;3.70;;;19.30;99.90;;;;;;5023083;28;20201;-81
2023/07/28 09:23:08;;;;;;;4.13;3.63;;;19.30;99.90;;;;;;5021216;28;20201;-80
2023/07/28 09:25:35;;;;;;;5.97;3.63;;;19.30;99.90;;;;;;5023026;28;20173;-81
2023/07/28 09:28:01;;;;;;;4.30;3.77;;;19.30;99.90;;;;;;5020949;28;20201;-80
2023/07/28 09:30:27;;;;;;;5.53;3.80;;;19.50;99.90;;;;;;5023999;28;20695;-80
2023/07/28 09:32:54;;;;;;;6.73;4.27;;;19.50;99.90;;;;;;5024860;28;20260;-80
2023/07/28 09:35:21;;;;;;;5.13;4.63;;;19.50;99.90;;;;;;5019714;28;20223;-81
2023/07/28 09:37:49;;;;;;;10.33;5.10;;;19.60;99.90;;;;;;5019466;28;20249;-80
2023/07/28 09:40:22;;;;;;;5.87;5.03;;;19.70;99.90;;;;;;5020099;28;20215;-81
2023/07/28 09:42:49;;;;;;;8.83;4.60;;;19.60;99.90;;;;;;5027623;28;20287;-80
2023/07/28 09:45:17;;;;;;;5.90;4.93;;;19.60;99.90;;;;;;5020487;28;20174;-80
2023/07/28 09:47:45;;;;;;;5.77;5.17;;;19.50;99.90;;;;;;5018716;28;20172;-80
2023/07/28 09:50:15;;;;;;;5.60;4.97;;;19.50;99.90;;;;;;5018160;28;20367;-80
2023/07/28 09:52:45;;;;;;;5.47;4.23;;;19.60;99.90;;;;;;5020282;28;20706;-80
2023/07/28 09:55:13;;;;;;;4.57;4.07;;;19.60;99.90;;;;;;5022199;28;20165;-80
2023/07/28 09:57:44;;;;;;;4.90;4.43;;;19.70;99.90;;;;;;5020509;28;20180;-80
2023/07/28 10:00:12;;;;;;;4.53;4.17;;;19.70;99.90;;;;;;5019863;28;20224;-80
2023/07/28 10:02:39;;;;;;;4.80;4.37;;;19.70;99.90;;;;;;5019994;28;20302;-80
2023/07/28 10:05:10;;;;;;;4.83;4.33;;;19.80;99.90;;;;;;5019222;28;20260;-80
2023/07/28 10:07:40;;;;;;;3.83;3.53;;;19.90;99.90;;;;;;5020291;28;20173;-80
2023/07/28 10:10:10;;;;;;;3.50;3.20;;;20.00;99.90;;;;;;5019400;28;20197;-80
2023/07/28 10:12:51;;;;;;;6.53;3.70;;;20.00;99.90;;;;;;5020538;28;20177;-80
2023/07/28 10:15:19;;;;;;;4.67;3.03;;;20.10;99.90;;;;;;5022130;28;20157;-80
2023/07/28 10:17:54;;;;;;;6.03;3.10;;;20.20;99.90;;;;;;5021486;28;20191;-80
2023/07/28 10:20:32;;;;;;;5.57;2.93;;;20.30;99.90;;;;;;5022393;28;20608;-80
2023/07/28 10:23:12;;;;;;;3.67;2.60;;;20.30;99.90;;;;;;5021082;28;20259;-81
2023/07/28 10:25:38;;;;;;;2.87;2.60;;;20.30;99.90;;;;;;5021744;28;20613;-80
2023/07/28 10:28:06;;;;;;;3.00;2.70;;;20.40;99.90;;;;;;5023843;28;20204;-80
2023/07/28 10:30:37;;;;;;;3.47;2.40;;;20.50;99.90;;;;;;5024045;28;20189;-81
2023/07/28 10:33:03;;;;;;;4.13;2.37;;;20.70;99.90;;;;;;5021028;28;20180;-80
2023/07/28 10:35:31;;;;;;;3.30;2.40;;;20.70;99.90;;;;;;5021281;28;20192;-81
2023/07/28 10:37:56;;;;;;;3.93;2.40;;;20.70;99.90;;;;;;5023978;28;20589;-80
2023/07/28 10:40:23;;;;;;;4.13;1.90;;;21.00;99.90;;;;;;5022800;28;20231;-81
2023/07/28 10:42:50;;;;;;;3.77;2.30;;;21.00;99.90;;;;;;5015390;28;20196;-82
2023/07/28 10:45:16;;;;;;;3.33;2.10;;;21.00;99.90;;;;;;5014919;28;20231;-81
2023/07/28 10:47:43;;;;;;;1.87;1.77;;;21.20;99.90;;;;;;5015142;28;20263;-82
2023/07/28 10:50:12;;;;;;;2.27;1.80;;;21.30;99.90;;;;;;5017518;28;20616;-79
2023/07/28 10:52:45;;;;;;;2.53;1.47;;;21.50;99.90;;;;;;5022308;28;20177;-81
2023/07/28 10:55:14;;;;;;;1.73;1.40;;;21.60;99.90;;;;;;5022332;28;20173;-81
2023/07/28 10:57:45;;;;;;;4.87;1.57;;;21.70;99.90;;;;;;5020863;28;20177;-81
2023/07/28 11:00:12;;;;;;;4.10;1.30;;;21.70;99.90;;;;;;5022570;28;20262;-84
2023/07/28 11:02:46;;;;;;;2.77;1.40;;;21.80;99.90;;;;;;5020250;28;20580;-83
2023/07/28 11:05:14;;;;;;;1.47;0.80;;;21.80;99.90;;;;;;5021408;28;20173;-83
2023/07/28 11:07:44;;;;;;;2.13;0.90;;;21.80;99.90;;;;;;5021187;28;20177;-83
2023/07/28 11:10:14;;;;;;;3.97;0.90;;;21.80;99.90;;;;;;5022700;28;20227;-82
2023/07/28 11:12:42;;;;;;;0.80;0.80;;;21.90;99.90;;;;;;5017371;28;20208;-83
2023/07/28 11:15:12;;;;;;;1.47;0.93;;;21.80;99.90;;;;;;5018758;28;20177;-82
2023/07/28 11:17:40;;;;;;;1.37;0.90;;;21.80;99.90;;;;;;5020149;28;20188;-79
2023/07/28 11:20:19;;;;;;;3.60;1.10;;;21.80;99.90;;;;;;5023390;28;20210;-80
2023/07/28 11:22:46;;;;;;;2.03;1.00;;;21.70;99.90;;;;;;5022175;28;20306;-80
2023/07/28 11:25:12;;;;;;;4.40;1.00;;;21.70;99.90;;;;;;5021773;28;20183;-81
2023/07/28 11:27:39;;;;;;;1.90;0.97;;;21.80;99.90;;;;;;5022164;28;20272;-79
2023/07/28 11:30:09;;;;;;;2.57;1.13;;;21.40;99.90;;;;;;5021928;28;20201;-79
2023/07/28 11:32:35;;;;;;;6.43;1.10;;;21.50;99.90;;;;;;5020294;28;20185;-80
2023/07/28 11:35:09;;;;;;;2.40;0.80;;;21.50;99.90;;;;;;5023598;28;20256;-79
2023/07/28 11:37:35;;;;;;;1.30;0.60;;;21.10;99.90;;;;;;5024111;28;20544;-81
2023/07/28 11:40:06;;;;;;;2.10;0.77;;;21.00;99.90;;;;;;5025280;28;20342;-80
2023/07/28 11:42:39;;;;;;;0.90;0.53;;;20.70;99.90;;;;;;5023197;28;20205;-80
2023/07/28 11:45:06;;;;;;;1.37;0.60;;;20.70;99.90;;;;;;5025141;28;20211;-78
2023/07/28 11:47:32;;;;;;;1.53;0.70;;;20.80;99.90;;;;;;5024150;28;20188;-80
2023/07/28 11:50:00;;;;;;;1.47;0.80;;;20.80;99.90;;;;;;5025798;28;20189;-79
2023/07/28 11:52:34;;;;;;;3.37;0.80;;;20.90;99.90;;;;;;5028729;28;20177;-80
2023/07/28 11:55:00;;;;;;;2.57;0.97;;;20.80;99.90;;;;;;5034919;28;20192;-80
2023/07/28 11:57:27;;;;;;;3.70;0.93;;;20.90;99.90;;;;;;5032094;28;20242;-80
2023/07/28 11:59:54;;;;;;;1.53;0.90;;;20.90;99.90;;;;;;5026089;28;20259;-80
2023/07/28 12:02:30;;;;;;;2.13;1.00;;;21.00;99.90;;;;;;5023569;28;20200;-79
2023/07/28 12:04:58;;;;;;;1.40;0.90;;;21.00;99.90;;;;;;5027514;28;20158;-80
2023/07/28 12:07:33;;;;;;;1.40;0.90;;;21.00;99.90;;;;;;5025743;28;20200;-79
2023/07/28 12:10:06;;;;;;;1.80;1.20;;;21.10;99.90;;;;;;5025277;28;20273;-80
2023/07/28 12:12:39;;;;;;;1.00;0.90;;;21.20;99.90;;;;;;5024575;28;20198;-80
2023/07/28 12:15:28;;;;;;;1.43;0.90;;;21.40;99.90;;;;;;5022096;28;20203;-84
2023/07/28 12:18:05;;;;;;;2.50;0.77;;;21.30;99.90;;;;;;5018180;28;20653;-81
2023/07/28 12:20:49;;;;;;;1.60;0.50;;;21.40;99.90;;;;;;5015262;28;20223;-82
2023/07/28 12:23:17;;;;;;;0.43;0.40;;;21.40;99.90;;;;;;5014736;28;20286;-83
2023/07/28 12:25:43;;;;;;;0.40;0.40;;;21.40;99.90;;;;;;5014949;28;20175;-83
2023/07/28 12:28:10;;;;;;;0.93;0.53;;;21.50;99.90;;;;;;5014484;28;20653;-83
2023/07/28 12:30:36;;;;;;;0.60;0.60;;;21.50;99.90;;;;;;5014019;28;20209;-84
2023/07/28 12:33:03;;;;;;;0.50;0.50;;;21.70;99.90;;;;;;5013799;28;20173;-82
2023/07/28 12:35:31;;;;;;;1.47;0.60;;;21.70;99.90;;;;;;5014762;28;20192;-83
2023/07/28 12:38:04;;;;;;;1.67;0.50;;;21.80;99.90;;;;;;5015275;28;20263;-84
2023/07/28 12:40:31;;;;;;;2.10;0.60;;;21.80;99.90;;;;;;5013716;28;20237;-84
2023/07/28 12:42:58;;;;;;;3.23;0.60;;;21.90;99.90;;;;;;5013955;28;20675;-84
2023/07/28 12:45:25;;;;;;;0.77;0.60;;;22.10;99.90;;;;;;5014829;28;20173;-84